createdAt,value
2022-10-30T00:00:04.710Z,13.89
2022-10-30T00:03:09.737Z,13.82
2022-10-30T00:05:54.940Z,13.83
2022-10-30T00:08:36.722Z,13.86
2022-10-30T00:11:10.774Z,13.84
2022-10-30T00:13:44.346Z,13.82
2022-10-30T00:16:19.972Z,13.79
2022-10-30T00:18:56.597Z,13.77
2022-10-30T00:21:27.277Z,13.73
2022-10-30T00:24:08.917Z,13.71
2022-10-30T00:26:43.649Z,13.73
2022-10-30T00:29:11.987Z,13.70
2022-10-30T00:31:50.594Z,13.68
2022-10-30T00:34:35.966Z,13.67
2022-10-30T00:37:12.933Z,13.68
2022-10-30T00:39:44.712Z,13.69
2022-10-30T00:42:32.878Z,13.68
2022-10-30T00:45:05.614Z,13.65
2022-10-30T00:48:08.659Z,13.67
2022-10-30T00:50:58.657Z,13.67
2022-10-30T00:53:35.522Z,13.65
2022-10-30T00:56:15.599Z,13.65
2022-10-30T00:59:07.878Z,13.64
2022-10-30T01:02:16.612Z,13.59
2022-10-30T01:05:00.352Z,13.56
2022-10-30T01:07:46.491Z,13.61
2022-10-30T01:10:22.312Z,13.62
2022-10-30T01:12:58.898Z,13.64
2022-10-30T01:15:39.059Z,13.66
2022-10-30T01:18:28.750Z,13.66
2022-10-30T01:22:03.617Z,13.62
2022-10-30T01:25:19.053Z,13.55
2022-10-30T01:28:17.736Z,13.51
2022-10-30T01:30:55.691Z,13.51
2022-10-30T01:34:16.562Z,13.40
2022-10-30T01:37:45.706Z,13.35
2022-10-30T01:40:28.891Z,13.32
2022-10-30T01:43:02.763Z,13.34
2022-10-30T01:46:09.056Z,13.35
2022-10-30T01:49:07.188Z,13.29
2022-10-30T01:52:25.745Z,13.27
2022-10-30T01:58:42.560Z,13.27
2022-10-30T02:01:15.721Z,13.27
2022-10-30T02:04:07.910Z,13.28
2022-10-30T02:06:48.707Z,13.22
2022-10-30T02:09:20.274Z,13.14
2022-10-30T02:12:06.810Z,13.13
2022-10-30T02:14:49.848Z,13.10
2022-10-30T02:17:26.211Z,13.09
2022-10-30T02:19:55.406Z,13.08
2022-10-30T02:22:29.974Z,13.10
2022-10-30T02:25:22.273Z,13.08
2022-10-30T02:28:04.288Z,13.04
2022-10-30T02:31:07.021Z,12.98
2022-10-30T02:37:36.891Z,12.97
2022-10-30T02:40:17.380Z,12.96
2022-10-30T02:45:52.295Z,13.03
2022-10-30T02:48:58.339Z,13.09
2022-10-30T02:51:24.573Z,13.11
2022-10-30T02:53:52.404Z,13.14
2022-10-30T02:56:21.423Z,13.16
2022-10-30T02:58:57.080Z,13.17
2022-10-30T03:01:25.364Z,13.19
2022-10-30T03:04:02.052Z,13.19
2022-10-30T03:06:30.771Z,13.19
2022-10-30T03:08:59.105Z,13.20
2022-10-30T03:11:30.045Z,13.20
2022-10-30T03:13:58.097Z,13.20
2022-10-30T03:16:34.448Z,13.19
2022-10-30T03:19:23.378Z,13.17
2022-10-30T03:22:06.868Z,13.17
2022-10-30T03:24:46.802Z,13.18
2022-10-30T03:27:15.029Z,13.17
2022-10-30T03:29:43.181Z,13.18
2022-10-30T03:32:13.652Z,13.17
2022-10-30T03:34:50.463Z,13.14
2022-10-30T03:37:21.053Z,13.12
2022-10-30T03:39:49.948Z,13.11
2022-10-30T03:42:19.249Z,13.10
2022-10-30T03:44:50.439Z,13.08
2022-10-30T03:47:40.531Z,13.05
2022-10-30T03:50:27.543Z,12.99
2022-10-30T03:52:58.883Z,12.97
2022-10-30T03:55:51.238Z,12.94
2022-10-30T03:58:34.135Z,12.87
2022-10-30T04:01:07.343Z,12.86
2022-10-30T04:03:37.810Z,12.83
2022-10-30T04:06:10.276Z,12.81
2022-10-30T04:08:41.752Z,12.81
2022-10-30T04:11:10.924Z,12.81
2022-10-30T04:13:41.964Z,12.80
2022-10-30T04:16:11.794Z,12.79
2022-10-30T04:18:59.702Z,12.78
2022-10-30T04:21:55.587Z,12.73
2022-10-30T04:24:43.921Z,12.67
2022-10-30T04:27:23.725Z,12.62
2022-10-30T04:29:56.165Z,12.59
2022-10-30T04:32:26.619Z,12.58
2022-10-30T04:35:39.683Z,12.52
2022-10-30T04:39:03.339Z,12.48
2022-10-30T04:45:58.940Z,12.34
2022-10-30T04:48:29.259Z,12.36
2022-10-30T04:51:03.491Z,12.40
2022-10-30T04:53:38.993Z,12.41
2022-10-30T04:56:11.542Z,12.43
2022-10-30T04:59:26.803Z,12.47
2022-10-30T05:01:55.411Z,12.50
2022-10-30T05:04:45.969Z,12.52
2022-10-30T05:07:18.971Z,12.49
2022-10-30T05:10:02.790Z,12.50
2022-10-30T05:12:46.441Z,12.50
2022-10-30T05:15:14.722Z,12.53
2022-10-30T05:17:45.986Z,12.55
2022-10-30T05:20:18.800Z,12.55
2022-10-30T05:22:57.118Z,12.55
2022-10-30T05:25:28.434Z,12.53
2022-10-30T05:28:06.622Z,12.50
2022-10-30T05:30:40.176Z,12.44
2022-10-30T05:33:15.878Z,12.40
2022-10-30T05:35:46.389Z,12.40
2022-10-30T05:38:14.355Z,12.39
2022-10-30T05:40:46.604Z,12.41
2022-10-30T05:43:14.688Z,12.44
2022-10-30T05:45:44.574Z,12.48
2022-10-30T05:48:16.200Z,12.51
2022-10-30T05:50:54.379Z,12.55
2022-10-30T05:53:34.192Z,12.57
2022-10-30T05:56:07.122Z,12.59
2022-10-30T05:58:40.567Z,12.59
2022-10-30T06:01:11.243Z,12.61
2022-10-30T06:03:45.355Z,12.59
2022-10-30T06:06:24.391Z,12.58
2022-10-30T06:09:07.389Z,12.56
2022-10-30T06:11:54.093Z,12.54
2022-10-30T06:14:31.954Z,12.53
2022-10-30T06:17:00.172Z,12.53
2022-10-30T06:19:27.766Z,12.52
2022-10-30T06:22:14.439Z,12.53
2022-10-30T06:25:00.876Z,12.51
2022-10-30T06:28:15.976Z,12.46
2022-10-30T06:30:57.099Z,12.43
2022-10-30T06:33:27.721Z,12.47
2022-10-30T06:36:06.400Z,12.50
2022-10-30T06:38:47.099Z,12.51
2022-10-30T06:41:30.531Z,12.55
2022-10-30T06:44:35.299Z,12.60
2022-10-30T06:47:17.254Z,12.63
2022-10-30T06:50:11.428Z,12.66
2022-10-30T06:52:40.035Z,12.74
2022-10-30T06:55:21.965Z,12.80
2022-10-30T06:58:15.634Z,12.82
2022-10-30T07:01:30.388Z,12.84
2022-10-30T07:04:32.469Z,12.87
2022-10-30T07:07:31.212Z,12.93
2022-10-30T07:20:30.017Z,13.17
2022-10-30T07:23:14.122Z,13.35
2022-10-30T08:14:27.508Z,17.35
2022-10-30T08:18:46.124Z,17.62
2022-10-30T08:22:14.840Z,17.28
2022-10-30T08:26:01.829Z,17.12
2022-10-30T08:43:07.560Z,17.06
2022-10-30T08:46:18.406Z,17.17
2022-10-30T08:48:52.866Z,17.39
2022-10-30T08:51:35.548Z,17.58
2022-10-30T08:54:10.347Z,17.67
2022-10-30T08:56:38.240Z,17.62
2022-10-30T08:59:17.221Z,17.68
2022-10-30T09:02:06.110Z,17.71
2022-10-30T09:08:54.997Z,17.72
2022-10-30T09:12:43.283Z,17.72
2022-10-30T09:15:37.027Z,17.74
2022-10-30T09:18:19.073Z,17.69
2022-10-30T09:20:49.964Z,17.76
2022-10-30T09:23:44.547Z,17.79
2022-10-30T09:26:55.587Z,17.69
2022-10-30T09:29:42.235Z,17.75
2022-10-30T09:32:51.195Z,17.81
2022-10-30T09:35:26.566Z,17.83
2022-10-30T09:37:58.338Z,17.84
2022-10-30T09:41:37.538Z,17.79
2022-10-30T09:49:14.956Z,17.57
2022-10-30T09:52:13.861Z,17.45
2022-10-30T09:55:09.967Z,17.47
2022-10-30T09:58:28.474Z,17.53
2022-10-30T10:09:57.137Z,17.64
2022-10-30T10:23:39.360Z,18.56
2022-10-30T12:27:42.128Z,20.27
2022-10-30T12:32:25.160Z,20.06
2022-10-30T12:40:11.831Z,19.79
2022-10-30T13:05:06.761Z,19.59
2022-10-30T13:17:26.156Z,19.28
2022-10-30T13:24:33.961Z,19.11
2022-10-30T13:27:26.997Z,19.07
2022-10-30T13:30:48.284Z,19.06
2022-10-30T13:34:22.695Z,19.04
2022-10-30T14:21:07.164Z,19.01
2022-10-30T14:25:04.412Z,18.88
2022-10-30T14:28:22.995Z,18.80
2022-10-30T16:20:23.422Z,16.56
2022-10-30T16:23:07.984Z,16.50
2022-10-30T16:26:00.542Z,16.46
2022-10-30T16:29:36.684Z,16.38
2022-10-30T16:36:34.965Z,16.16
2022-10-30T16:39:27.331Z,16.15
2022-10-30T16:42:14.363Z,16.13
2022-10-30T16:45:30.840Z,16.10
2022-10-30T16:48:26.138Z,16.01
2022-10-30T16:51:22.500Z,15.95
2022-10-30T16:54:03.239Z,15.89
2022-10-30T17:01:20.509Z,15.68
2022-10-30T17:04:03.815Z,15.50
2022-10-30T17:07:28.704Z,15.48
2022-10-30T17:10:46.811Z,15.42
2022-10-30T17:14:00.557Z,15.36
2022-10-30T17:16:42.898Z,15.34
2022-10-30T17:20:18.620Z,15.31
2022-10-30T17:23:55.784Z,15.18
2022-10-30T17:26:41.960Z,15.13
2022-10-30T17:30:30.221Z,15.10
2022-10-30T17:33:46.324Z,15.04
2022-10-30T17:36:23.804Z,14.99
2022-10-30T17:42:02.882Z,14.95
2022-10-30T17:44:48.777Z,14.91
2022-10-30T17:48:11.311Z,14.84
2022-10-30T17:50:54.173Z,14.79
2022-10-30T17:53:38.739Z,14.77
2022-10-30T18:00:32.988Z,14.67
2022-10-30T18:03:28.387Z,14.65
2022-10-30T18:06:03.848Z,14.65
2022-10-30T18:08:49.782Z,14.64
2022-10-30T18:11:41.949Z,14.59
2022-10-30T18:14:17.545Z,14.57
2022-10-30T18:16:45.929Z,14.55
2022-10-30T18:19:30.038Z,14.52
2022-10-30T18:22:06.377Z,14.48
2022-10-30T18:24:42.961Z,14.46
2022-10-30T18:32:28.467Z,14.22
2022-10-30T18:34:55.887Z,14.18
2022-10-30T18:37:23.323Z,14.17
2022-10-30T18:39:50.731Z,14.15
2022-10-30T18:42:18.262Z,14.16
2022-10-30T18:44:45.714Z,14.14
2022-10-30T18:47:20.639Z,14.11
2022-10-30T18:49:49.222Z,14.11
2022-10-30T18:52:16.536Z,14.11
2022-10-30T18:54:44.554Z,14.13
2022-10-30T18:57:13.056Z,14.15
2022-10-30T18:59:40.570Z,14.17
2022-10-30T19:02:23.628Z,14.19
2022-10-30T19:04:51.135Z,14.22
2022-10-30T19:07:18.646Z,14.23
2022-10-30T19:09:46.044Z,14.25
2022-10-30T19:12:13.744Z,14.26
2022-10-30T19:14:41.625Z,14.27
2022-10-30T19:17:09.132Z,14.27
2022-10-30T19:19:36.547Z,14.28
2022-10-30T19:22:03.987Z,14.28
2022-10-30T19:24:31.386Z,14.28
2022-10-30T19:26:58.747Z,14.27
2022-10-30T19:29:26.155Z,14.25
2022-10-30T19:31:53.708Z,14.21
2022-10-30T19:34:21.102Z,14.18
2022-10-30T19:36:48.557Z,14.16
2022-10-30T19:39:18.767Z,14.11
2022-10-30T19:41:46.945Z,14.05
2022-10-30T19:44:14.521Z,14.00
2022-10-30T19:46:41.965Z,13.96
2022-10-30T19:49:20.527Z,13.93
2022-10-30T19:51:48.304Z,13.89
2022-10-30T19:54:15.968Z,13.85
2022-10-30T19:56:43.436Z,13.81
2022-10-30T19:59:15.237Z,13.78
2022-10-30T20:01:43.980Z,13.76
2022-10-30T20:04:12.176Z,13.73
2022-10-30T20:06:39.579Z,13.69
2022-10-30T20:09:10.980Z,13.66
2022-10-30T20:11:38.434Z,13.61
2022-10-30T20:14:05.814Z,13.59
2022-10-30T20:16:33.227Z,13.56
2022-10-30T20:19:00.732Z,13.53
2022-10-30T20:21:28.260Z,13.49
2022-10-30T20:23:55.686Z,13.46
2022-10-30T20:26:28.971Z,13.44
2022-10-30T20:28:59.039Z,13.41
2022-10-30T20:31:27.389Z,13.39
2022-10-30T20:33:54.803Z,13.36
2022-10-30T20:36:22.261Z,13.32
2022-10-30T20:38:49.778Z,13.28
2022-10-30T20:41:24.146Z,13.25
2022-10-30T20:43:51.838Z,13.20
2022-10-30T20:46:20.139Z,13.17
2022-10-30T20:48:47.777Z,13.14
2022-10-30T20:51:15.353Z,13.10
2022-10-30T20:53:42.912Z,13.06
2022-10-30T20:56:11.055Z,13.04
2022-10-30T20:58:39.571Z,13.02
2022-10-30T21:01:07.142Z,12.99
2022-10-30T21:03:34.597Z,12.97
2022-10-30T21:06:02.118Z,12.95
2022-10-30T21:08:32.593Z,12.92
2022-10-30T21:11:08.286Z,12.89
2022-10-30T21:13:36.597Z,12.86
2022-10-30T21:16:07.964Z,12.87
2022-10-30T21:18:36.066Z,12.84
2022-10-30T21:21:07.654Z,12.84
2022-10-30T21:23:35.023Z,12.83
2022-10-30T21:26:06.374Z,12.79
2022-10-30T21:28:33.864Z,12.73
2022-10-30T21:31:08.695Z,12.70
2022-10-30T21:33:37.556Z,12.65
2022-10-30T21:36:13.091Z,12.62
2022-10-30T21:38:42.698Z,12.60
2022-10-30T21:41:13.066Z,12.60
2022-10-30T21:43:40.917Z,12.60
2022-10-30T21:46:11.789Z,12.61
2022-10-30T21:48:39.557Z,12.62
2022-10-30T21:51:16.644Z,12.62
2022-10-30T21:53:45.424Z,12.61
2022-10-30T21:56:20.819Z,12.61
2022-10-30T21:58:48.651Z,12.60
2022-10-30T22:01:26.105Z,12.60
2022-10-30T22:03:54.122Z,12.58
2022-10-30T22:06:22.103Z,12.57
2022-10-30T22:08:53.043Z,12.54
2022-10-30T22:11:23.284Z,12.48
2022-10-30T22:13:59.938Z,12.44
2022-10-30T22:16:30.501Z,12.42
2022-10-30T22:18:58.826Z,12.40
2022-10-30T22:21:27.326Z,12.36
2022-10-30T22:23:54.687Z,12.32
2022-10-30T22:26:23.346Z,12.30
2022-10-30T22:28:58.670Z,12.30
2022-10-30T22:31:29.399Z,12.26
2022-10-30T22:34:00.175Z,12.20
2022-10-30T22:36:32.599Z,12.13
2022-10-30T22:39:11.802Z,12.10
2022-10-30T22:41:40.384Z,12.12
2022-10-30T22:44:13.701Z,12.16
2022-10-30T22:46:41.394Z,12.18
2022-10-30T22:49:09.111Z,12.18
2022-10-30T22:51:38.390Z,12.14
2022-10-30T22:54:14.038Z,12.11
2022-10-30T22:56:42.287Z,12.08
2022-10-30T22:59:12.792Z,12.08
2022-10-30T23:01:41.364Z,12.08
2022-10-30T23:04:11.707Z,12.08
2022-10-30T23:06:39.170Z,12.08
2022-10-30T23:09:21.548Z,12.06
2022-10-30T23:11:49.490Z,12.04
2022-10-30T23:14:18.742Z,12.03
2022-10-30T23:16:46.153Z,12.04
2022-10-30T23:19:13.547Z,12.03
2022-10-30T23:21:41.008Z,12.03
2022-10-30T23:24:08.489Z,12.01
2022-10-30T23:26:36.154Z,11.96
2022-10-30T23:29:03.762Z,11.93
2022-10-30T23:31:39.200Z,11.90
2022-10-30T23:34:11.795Z,11.83
2022-10-30T23:36:40.321Z,11.80
2022-10-30T23:39:13.301Z,11.79
2022-10-30T23:41:41.230Z,11.77
2022-10-30T23:44:13.390Z,11.74
2022-10-30T23:46:40.748Z,11.70
2022-10-30T23:49:08.149Z,11.66
2022-10-30T23:51:35.672Z,11.63
2022-10-30T23:54:03.896Z,11.59
2022-10-30T23:56:31.435Z,11.56
2022-10-30T23:58:59.698Z,11.52
